sensor_id;sensor_type;location;lat;lon;timestamp;pressure;altitude;pressure_sealevel;temperature;humidity
77321;BME280;66382;52.252;8.780;2023-04-06T00:00:56;100927.72;;;4.76;44.22
77321;BME280;66382;52.252;8.780;2023-04-06T00:03:22;100926.03;;;4.74;43.60
77321;BME280;66382;52.252;8.780;2023-04-06T00:05:48;100912.63;;;4.66;43.92
77321;BME280;66382;52.252;8.780;2023-04-06T00:08:13;100925.91;;;4.76;44.25
77321;BME280;66382;52.252;8.780;2023-04-06T00:10:41;100908.72;;;4.70;43.84
77321;BME280;66382;52.252;8.780;2023-04-06T00:13:07;100921.31;;;4.78;43.53
77321;BME280;66382;52.252;8.780;2023-04-06T00:15:33;100920.47;;;4.78;43.95
77321;BME280;66382;52.252;8.780;2023-04-06T00:17:58;100918.50;;;4.70;44.31
77321;BME280;66382;52.252;8.780;2023-04-06T00:20:24;100915.16;;;4.68;44.48
77321;BME280;66382;52.252;8.780;2023-04-06T00:22:50;100913.63;;;4.65;45.07
77321;BME280;66382;52.252;8.780;2023-04-06T00:25:16;100911.66;;;4.67;43.92
77321;BME280;66382;52.252;8.780;2023-04-06T00:27:43;100905.50;;;4.67;44.99
77321;BME280;66382;52.252;8.780;2023-04-06T00:30:10;100866.53;;;4.48;44.27
77321;BME280;66382;52.252;8.780;2023-04-06T00:32:35;100893.06;;;4.67;44.08
77321;BME280;66382;52.252;8.780;2023-04-06T00:35:02;100890.56;;;4.66;44.52
77321;BME280;66382;52.252;8.780;2023-04-06T00:37:28;100889.00;;;4.63;44.42
77321;BME280;66382;52.252;8.780;2023-04-06T00:39:54;100891.97;;;4.60;44.75
77321;BME280;66382;52.252;8.780;2023-04-06T00:42:21;100881.59;;;4.57;43.81
77321;BME280;66382;52.252;8.780;2023-04-06T00:44:48;100878.25;;;4.55;43.47
77321;BME280;66382;52.252;8.780;2023-04-06T00:47:14;100880.47;;;4.50;44.79
77321;BME280;66382;52.252;8.780;2023-04-06T00:49:39;100879.81;;;4.48;44.25
77321;BME280;66382;52.252;8.780;2023-04-06T00:52:05;100887.75;;;4.48;44.47
77321;BME280;66382;52.252;8.780;2023-04-06T00:54:31;100872.53;;;4.40;44.35
77321;BME280;66382;52.252;8.780;2023-04-06T00:56:57;100876.16;;;4.39;44.32
77321;BME280;66382;52.252;8.780;2023-04-06T00:59:23;100862.59;;;4.32;44.31
77321;BME280;66382;52.252;8.780;2023-04-06T01:01:50;100869.59;;;4.34;44.83
77321;BME280;66382;52.252;8.780;2023-04-06T01:04:16;100878.50;;;4.32;44.63
77321;BME280;66382;52.252;8.780;2023-04-06T01:06:42;100856.84;;;4.18;45.00
77321;BME280;66382;52.252;8.780;2023-04-06T01:09:08;100837.84;;;4.03;45.76
77321;BME280;66382;52.252;8.780;2023-04-06T01:11:35;100850.56;;;4.09;46.14
77321;BME280;66382;52.252;8.780;2023-04-06T01:14:01;100861.72;;;4.13;45.32
77321;BME280;66382;52.252;8.780;2023-04-06T01:16:26;100855.28;;;4.05;45.28
77321;BME280;66382;52.252;8.780;2023-04-06T01:18:54;100858.22;;;4.02;45.80
77321;BME280;66382;52.252;8.780;2023-04-06T01:21:20;100853.34;;;3.98;45.81
77321;BME280;66382;52.252;8.780;2023-04-06T01:23:47;100841.34;;;3.94;45.39
77321;BME280;66382;52.252;8.780;2023-04-06T01:26:13;100847.59;;;3.93;45.13
77321;BME280;66382;52.252;8.780;2023-04-06T01:28:39;100833.09;;;3.87;45.58
77321;BME280;66382;52.252;8.780;2023-04-06T01:31:05;100845.81;;;3.93;45.95
77321;BME280;66382;52.252;8.780;2023-04-06T01:33:31;100841.75;;;3.89;45.75
77321;BME280;66382;52.252;8.780;2023-04-06T01:35:57;100840.22;;;3.86;45.62
77321;BME280;66382;52.252;8.780;2023-04-06T01:38:22;100828.59;;;3.78;46.04
77321;BME280;66382;52.252;8.780;2023-04-06T01:40:50;100837.69;;;3.85;46.13
77321;BME280;66382;52.252;8.780;2023-04-06T01:43:15;100829.88;;;3.83;46.00
77321;BME280;66382;52.252;8.780;2023-04-06T01:45:41;100831.53;;;3.75;47.14
77321;BME280;66382;52.252;8.780;2023-04-06T01:48:07;100837.94;;;3.72;47.48
77321;BME280;66382;52.252;8.780;2023-04-06T01:50:33;100832.09;;;3.69;46.30
77321;BME280;66382;52.252;8.780;2023-04-06T01:52:58;100819.63;;;3.59;46.83
77321;BME280;66382;52.252;8.780;2023-04-06T01:55:24;100827.19;;;3.64;46.27
77321;BME280;66382;52.252;8.780;2023-04-06T01:57:51;100825.34;;;3.64;46.51
77321;BME280;66382;52.252;8.780;2023-04-06T02:00:17;100825.34;;;3.64;46.15
77321;BME280;66382;52.252;8.780;2023-04-06T02:02:43;100826.75;;;3.59;46.27
77321;BME280;66382;52.252;8.780;2023-04-06T02:05:09;100823.66;;;3.54;46.37
77321;BME280;66382;52.252;8.780;2023-04-06T02:07:35;100827.44;;;3.51;46.21
77321;BME280;66382;52.252;8.780;2023-04-06T02:10:00;100824.91;;;3.50;46.85
77321;BME280;66382;52.252;8.780;2023-04-06T02:12:26;100818.34;;;3.44;47.00
77321;BME280;66382;52.252;8.780;2023-04-06T02:14:53;100784.47;;;3.17;46.52
77321;BME280;66382;52.252;8.780;2023-04-06T02:17:19;100811.31;;;3.33;46.83
77321;BME280;66382;52.252;8.780;2023-04-06T02:19:45;100813.41;;;3.30;47.81
77321;BME280;66382;52.252;8.780;2023-04-06T02:22:11;100816.75;;;3.32;48.31
77321;BME280;66382;52.252;8.780;2023-04-06T02:24:36;100814.50;;;3.27;46.92
77321;BME280;66382;52.252;8.780;2023-04-06T02:27:02;100778.13;;;2.98;47.85
77321;BME280;66382;52.252;8.780;2023-04-06T02:29:28;100811.66;;;3.19;47.05
77321;BME280;66382;52.252;8.780;2023-04-06T02:31:55;100803.28;;;3.14;46.96
77321;BME280;66382;52.252;8.780;2023-04-06T02:34:21;100807.47;;;3.16;47.42
77321;BME280;66382;52.252;8.780;2023-04-06T02:36:47;100810.25;;;3.15;47.48
77321;BME280;66382;52.252;8.780;2023-04-06T02:39:13;100800.19;;;3.09;47.29
77321;BME280;66382;52.252;8.780;2023-04-06T02:41:39;100796.66;;;2.98;50.72
77321;BME280;66382;52.252;8.780;2023-04-06T02:44:06;100795.78;;;2.88;50.63
77321;BME280;66382;52.252;8.780;2023-04-06T02:46:32;100801.72;;;2.80;48.82
77321;BME280;66382;52.252;8.780;2023-04-06T02:49:00;100782.31;;;2.70;48.49
77321;BME280;66382;52.252;8.780;2023-04-06T02:51:25;100792.50;;;2.75;49.33
77321;BME280;66382;52.252;8.780;2023-04-06T02:53:51;100794.94;;;2.67;49.71
77321;BME280;66382;52.252;8.780;2023-04-06T02:56:17;100798.31;;;2.69;48.71
77321;BME280;66382;52.252;8.780;2023-04-06T02:58:43;100798.91;;;2.72;49.65
77321;BME280;66382;52.252;8.780;2023-04-06T03:01:09;100797.16;;;2.62;49.20
77321;BME280;66382;52.252;8.780;2023-04-06T03:03:34;100798.69;;;2.64;48.60
77321;BME280;66382;52.252;8.780;2023-04-06T03:06:02;100789.13;;;2.52;49.80
77321;BME280;66382;52.252;8.780;2023-04-06T03:08:28;100805.63;;;2.55;49.50
77321;BME280;66382;52.252;8.780;2023-04-06T03:10:53;100803.47;;;2.49;51.71
77321;BME280;66382;52.252;8.780;2023-04-06T03:13:20;100794.50;;;2.41;50.10
77321;BME280;66382;52.252;8.780;2023-04-06T03:15:45;100799.66;;;2.42;49.47
77321;BME280;66382;52.252;8.780;2023-04-06T03:18:11;100794.38;;;2.42;49.30
77321;BME280;66382;52.252;8.780;2023-04-06T03:20:37;100800.38;;;2.44;50.87
77321;BME280;66382;52.252;8.780;2023-04-06T03:23:04;100777.72;;;2.30;49.73
77321;BME280;66382;52.252;8.780;2023-04-06T03:25:30;100800.91;;;2.38;51.48
77321;BME280;66382;52.252;8.780;2023-04-06T03:27:56;100795.16;;;2.33;50.25
77321;BME280;66382;52.252;8.780;2023-04-06T03:30:21;100798.03;;;2.30;50.73
77321;BME280;66382;52.252;8.780;2023-04-06T03:32:47;100796.81;;;2.34;50.26
77321;BME280;66382;52.252;8.780;2023-04-06T03:35:13;100798.25;;;2.38;49.46
77321;BME280;66382;52.252;8.780;2023-04-06T03:37:39;100800.19;;;2.36;49.71
77321;BME280;66382;52.252;8.780;2023-04-06T03:40:07;100793.69;;;2.40;50.38
77321;BME280;66382;52.252;8.780;2023-04-06T03:42:33;100790.44;;;2.36;49.40
77321;BME280;66382;52.252;8.780;2023-04-06T03:44:58;100795.34;;;2.41;49.50
77321;BME280;66382;52.252;8.780;2023-04-06T03:47:24;100796.31;;;2.40;49.62
77321;BME280;66382;52.252;8.780;2023-04-06T03:49:50;100795.00;;;2.34;51.51
77321;BME280;66382;52.252;8.780;2023-04-06T03:52:16;100796.00;;;2.33;50.28
77321;BME280;66382;52.252;8.780;2023-04-06T03:54:42;100801.28;;;2.33;49.87
77321;BME280;66382;52.252;8.780;2023-04-06T03:57:09;100790.97;;;2.30;49.25
77321;BME280;66382;52.252;8.780;2023-04-06T03:59:34;100801.72;;;2.39;50.30
77321;BME280;66382;52.252;8.780;2023-04-06T04:02:00;100793.69;;;2.40;49.46
77321;BME280;66382;52.252;8.780;2023-04-06T04:04:26;100792.81;;;2.40;49.76
77321;BME280;66382;52.252;8.780;2023-04-06T04:06:52;100798.63;;;2.33;50.19
77321;BME280;66382;52.252;8.780;2023-04-06T04:09:17;100800.56;;;2.31;50.62
77321;BME280;66382;52.252;8.780;2023-04-06T04:11:43;100797.91;;;2.31;50.06
77321;BME280;66382;52.252;8.780;2023-04-06T04:14:10;100802.38;;;2.31;49.81
77321;BME280;66382;52.252;8.780;2023-04-06T04:16:36;100802.38;;;2.31;49.39
77321;BME280;66382;52.252;8.780;2023-04-06T04:19:02;100801.78;;;2.27;49.56
77321;BME280;66382;52.252;8.780;2023-04-06T04:21:29;100801.66;;;2.29;49.41
77321;BME280;66382;52.252;8.780;2023-04-06T04:23:55;100809.47;;;2.30;49.64
77321;BME280;66382;52.252;8.780;2023-04-06T04:26:21;100801.41;;;2.32;48.47
77321;BME280;66382;52.252;8.780;2023-04-06T04:28:47;100804.88;;;2.32;49.21
77321;BME280;66382;52.252;8.780;2023-04-06T04:31:14;100805.75;;;2.33;49.45
77321;BME280;66382;52.252;8.780;2023-04-06T04:33:40;100803.81;;;2.35;49.37
77321;BME280;66382;52.252;8.780;2023-04-06T04:36:06;100798.38;;;2.36;48.97
77321;BME280;66382;52.252;8.780;2023-04-06T04:38:32;100801.28;;;2.33;49.36
77321;BME280;66382;52.252;8.780;2023-04-06T04:40:58;100801.28;;;2.33;49.20
77321;BME280;66382;52.252;8.780;2023-04-06T04:43:23;100786.44;;;2.21;49.78
77321;BME280;66382;52.252;8.780;2023-04-06T04:45:49;100785.44;;;2.22;50.41
77321;BME280;66382;52.252;8.780;2023-04-06T04:48:16;100805.13;;;2.29;49.84
77321;BME280;66382;52.252;8.780;2023-04-06T04:50:42;100809.72;;;2.27;49.97
77321;BME280;66382;52.252;8.780;2023-04-06T04:53:08;100810.56;;;2.28;50.34
77321;BME280;66382;52.252;8.780;2023-04-06T04:55:33;100808.16;;;2.25;50.57
77321;BME280;66382;52.252;8.780;2023-04-06T04:57:59;100812.63;;;2.24;50.04
77321;BME280;66382;52.252;8.780;2023-04-06T05:00:25;100813.44;;;2.25;49.52
77321;BME280;66382;52.252;8.780;2023-04-06T05:02:51;100809.25;;;2.22;50.39
77321;BME280;66382;52.252;8.780;2023-04-06T05:05:18;100798.69;;;2.22;50.16
77321;BME280;66382;52.252;8.780;2023-04-06T05:07:43;100807.47;;;2.23;50.08
77321;BME280;66382;52.252;8.780;2023-04-06T05:10:09;100803.03;;;2.23;49.97
77321;BME280;66382;52.252;8.780;2023-04-06T05:12:36;100806.94;;;2.29;50.10
77321;BME280;66382;52.252;8.780;2023-04-06T05:15:03;100802.22;;;2.32;50.19
77321;BME280;66382;52.252;8.780;2023-04-06T05:17:29;100810.16;;;2.32;49.79
77321;BME280;66382;52.252;8.780;2023-04-06T05:19:55;100806.94;;;2.29;50.65
77321;BME280;66382;52.252;8.780;2023-04-06T05:22:22;100804.75;;;2.34;49.89
77321;BME280;66382;52.252;8.780;2023-04-06T05:24:48;100809.41;;;2.42;51.22
77321;BME280;66382;52.252;8.780;2023-04-06T05:27:14;100809.47;;;2.51;50.34
77321;BME280;66382;52.252;8.780;2023-04-06T05:29:40;100802.22;;;2.74;50.94
77321;BME280;66382;52.252;8.780;2023-04-06T05:32:05;100812.69;;;2.97;50.12
77321;BME280;66382;52.252;8.780;2023-04-06T05:34:32;100802.78;;;3.30;50.26
77321;BME280;66382;52.252;8.780;2023-04-06T05:36:57;100810.41;;;3.63;49.48
77321;BME280;66382;52.252;8.780;2023-04-06T05:39:24;100804.75;;;3.97;49.96
77321;BME280;66382;52.252;8.780;2023-04-06T05:41:50;100808.13;;;4.28;49.91
77321;BME280;66382;52.252;8.780;2023-04-06T05:44:16;100794.66;;;4.59;49.01
77321;BME280;66382;52.252;8.780;2023-04-06T05:46:42;100799.78;;;4.90;49.08
77321;BME280;66382;52.252;8.780;2023-04-06T05:49:07;100798.25;;;5.25;47.99
77321;BME280;66382;52.252;8.780;2023-04-06T05:51:33;100789.34;;;5.44;47.57
77321;BME280;66382;52.252;8.780;2023-04-06T05:53:59;100795.38;;;5.64;47.87
77321;BME280;66382;52.252;8.780;2023-04-06T05:56:26;100785.38;;;5.93;47.74
77321;BME280;66382;52.252;8.780;2023-04-06T05:58:52;100796.38;;;6.26;47.06
77321;BME280;66382;52.252;8.780;2023-04-06T06:01:18;100752.56;;;6.38;47.12
77321;BME280;66382;52.252;8.780;2023-04-06T06:03:43;100787.19;;;6.91;46.71
77321;BME280;66382;52.252;8.780;2023-04-06T06:06:09;100793.66;;;7.14;45.68
77321;BME280;66382;52.252;8.780;2023-04-06T06:08:35;100791.03;;;7.22;46.18
77321;BME280;66382;52.252;8.780;2023-04-06T06:11:01;100791.91;;;7.39;45.16
77321;BME280;66382;52.252;8.780;2023-04-06T06:13:28;100785.31;;;7.51;45.53
77321;BME280;66382;52.252;8.780;2023-04-06T06:15:54;100787.00;;;7.61;45.73
77321;BME280;66382;52.252;8.780;2023-04-06T06:18:20;100794.25;;;7.77;45.34
77321;BME280;66382;52.252;8.780;2023-04-06T06:20:46;100783.91;;;7.82;45.44
77321;BME280;66382;52.252;8.780;2023-04-06T06:23:11;100790.59;;;7.94;45.40
77321;BME280;66382;52.252;8.780;2023-04-06T06:25:37;100795.94;;;8.02;44.53
77321;BME280;66382;52.252;8.780;2023-04-06T06:28:03;100779.94;;;8.02;44.28
77321;BME280;66382;52.252;8.780;2023-04-06T06:30:30;100782.78;;;8.17;44.24
77321;BME280;66382;52.252;8.780;2023-04-06T06:32:56;100780.63;;;8.37;43.93
77321;BME280;66382;52.252;8.780;2023-04-06T06:35:22;100783.63;;;8.50;43.41
77321;BME280;66382;52.252;8.780;2023-04-06T06:37:47;100782.47;;;8.61;44.01
77321;BME280;66382;52.252;8.780;2023-04-06T06:40:13;100787.97;;;8.76;43.11
77321;BME280;66382;52.252;8.780;2023-04-06T06:42:39;100780.56;;;8.94;43.35
77321;BME280;66382;52.252;8.780;2023-04-06T06:45:06;100786.06;;;9.01;42.25
77321;BME280;66382;52.252;8.780;2023-04-06T06:47:33;100782.53;;;9.09;43.11
77321;BME280;66382;52.252;8.780;2023-04-06T06:49:59;100784.09;;;9.34;42.94
77321;BME280;66382;52.252;8.780;2023-04-06T06:52:25;100780.66;;;9.57;43.50
77321;BME280;66382;52.252;8.780;2023-04-06T06:54:51;100774.19;;;9.74;42.30
77321;BME280;66382;52.252;8.780;2023-04-06T06:57:16;100786.44;;;10.00;42.73
77321;BME280;66382;52.252;8.780;2023-04-06T06:59:42;100790.59;;;10.25;42.01
77321;BME280;66382;52.252;8.780;2023-04-06T07:02:08;100781.88;;;10.54;40.70
77321;BME280;66382;52.252;8.780;2023-04-06T07:04:35;100780.81;;;10.79;42.34
77321;BME280;66382;52.252;8.780;2023-04-06T07:07:01;100777.94;;;11.10;41.64
77321;BME280;66382;52.252;8.780;2023-04-06T07:09:27;100786.63;;;11.41;41.00
77321;BME280;66382;52.252;8.780;2023-04-06T07:11:53;100781.41;;;11.70;40.42
77321;BME280;66382;52.252;8.780;2023-04-06T07:14:18;100784.66;;;12.01;40.83
77321;BME280;66382;52.252;8.780;2023-04-06T07:16:44;100788.88;;;12.54;43.25
77321;BME280;66382;52.252;8.780;2023-04-06T07:19:10;100777.88;;;12.77;40.22
77321;BME280;66382;52.252;8.780;2023-04-06T07:21:37;100780.06;;;12.95;38.85
77321;BME280;66382;52.252;8.780;2023-04-06T07:24:03;100767.41;;;13.23;40.50
77321;BME280;66382;52.252;8.780;2023-04-06T07:26:29;100771.50;;;13.54;39.41
77321;BME280;66382;52.252;8.780;2023-04-06T07:28:55;100769.69;;;13.74;41.03
77321;BME280;66382;52.252;8.780;2023-04-06T07:31:20;100778.88;;;13.93;40.65
77321;BME280;66382;52.252;8.780;2023-04-06T07:33:46;100761.66;;;13.94;37.82
77321;BME280;66382;52.252;8.780;2023-04-06T07:36:12;100767.69;;;13.90;38.12
77321;BME280;66382;52.252;8.780;2023-04-06T07:38:39;100760.84;;;14.14;35.69
77321;BME280;66382;52.252;8.780;2023-04-06T07:41:05;100764.19;;;14.23;36.61
77321;BME280;66382;52.252;8.780;2023-04-06T07:43:31;100760.69;;;14.42;38.40
77321;BME280;66382;52.252;8.780;2023-04-06T07:45:56;100763.59;;;14.87;38.43
77321;BME280;66382;52.252;8.780;2023-04-06T07:48:22;100771.63;;;15.14;36.22
77321;BME280;66382;52.252;8.780;2023-04-06T07:50:48;100760.06;;;15.45;39.65
77321;BME280;66382;52.252;8.780;2023-04-06T07:53:14;100749.19;;;15.72;36.87
77321;BME280;66382;52.252;8.780;2023-04-06T07:55:41;100759.69;;;15.86;36.70
77321;BME280;66382;52.252;8.780;2023-04-06T07:58:07;100751.72;;;15.98;38.73
77321;BME280;66382;52.252;8.780;2023-04-06T08:00:32;100751.25;;;16.33;36.16
77321;BME280;66382;52.252;8.780;2023-04-06T08:02:58;100753.97;;;16.58;36.73
77321;BME280;66382;52.252;8.780;2023-04-06T08:05:24;100723.75;;;16.61;36.42
77321;BME280;66382;52.252;8.780;2023-04-06T08:07:50;100748.72;;;17.07;33.57
77321;BME280;66382;52.252;8.780;2023-04-06T08:10:16;100748.94;;;16.87;34.97
77321;BME280;66382;52.252;8.780;2023-04-06T08:12:43;100750.00;;;17.04;36.86
77321;BME280;66382;52.252;8.780;2023-04-06T08:15:09;100757.69;;;17.07;36.25
77321;BME280;66382;52.252;8.780;2023-04-06T08:17:35;100745.94;;;16.95;36.31
77321;BME280;66382;52.252;8.780;2023-04-06T08:20:01;100741.88;;;17.23;36.39
77321;BME280;66382;52.252;8.780;2023-04-06T08:22:27;100745.09;;;17.50;32.25
77321;BME280;66382;52.252;8.780;2023-04-06T08:24:53;100745.31;;;17.48;32.31
77321;BME280;66382;52.252;8.780;2023-04-06T08:27:18;100744.34;;;17.73;35.71
77321;BME280;66382;52.252;8.780;2023-04-06T08:29:46;100732.59;;;17.79;36.43
77321;BME280;66382;52.252;8.780;2023-04-06T08:32:11;100733.28;;;18.04;33.32
77321;BME280;66382;52.252;8.780;2023-04-06T08:34:37;100739.59;;;18.29;36.36
77321;BME280;66382;52.252;8.780;2023-04-06T08:37:03;100728.84;;;18.69;35.80
77321;BME280;66382;52.252;8.780;2023-04-06T08:39:29;100730.41;;;18.77;35.02
77321;BME280;66382;52.252;8.780;2023-04-06T08:41:54;100728.84;;;18.69;30.27
77321;BME280;66382;52.252;8.780;2023-04-06T08:44:20;100723.69;;;18.56;32.75
77321;BME280;66382;52.252;8.780;2023-04-06T08:46:47;100723.69;;;18.67;34.22
77321;BME280;66382;52.252;8.780;2023-04-06T08:49:14;100723.47;;;18.81;33.90
77321;BME280;66382;52.252;8.780;2023-04-06T08:51:42;100720.25;;;18.72;32.54
77321;BME280;66382;52.252;8.780;2023-04-06T08:54:07;100719.69;;;18.82;35.35
77321;BME280;66382;52.252;8.780;2023-04-06T08:56:37;100726.66;;;18.89;31.96
77321;BME280;66382;52.252;8.780;2023-04-06T08:59:03;100726.28;;;18.98;36.73
77321;BME280;66382;52.252;8.780;2023-04-06T09:01:30;100718.50;;;19.42;35.77
77321;BME280;66382;52.252;8.780;2023-04-06T09:04:00;100724.00;;;19.59;34.63
77321;BME280;66382;52.252;8.780;2023-04-06T09:06:26;100711.84;;;19.78;35.41
77321;BME280;66382;52.252;8.780;2023-04-06T09:08:52;100720.19;;;19.71;31.92
77321;BME280;66382;52.252;8.780;2023-04-06T09:11:19;100720.72;;;19.45;36.08
77321;BME280;66382;52.252;8.780;2023-04-06T09:13:46;100723.81;;;19.65;35.57
77321;BME280;66382;52.252;8.780;2023-04-06T09:16:12;100719.88;;;20.02;33.54
77321;BME280;66382;52.252;8.780;2023-04-06T09:18:38;100721.22;;;20.16;33.69
77321;BME280;66382;52.252;8.780;2023-04-06T09:21:06;100719.63;;;20.20;35.76
77321;BME280;66382;52.252;8.780;2023-04-06T09:23:32;100710.19;;;20.56;34.37
77321;BME280;66382;52.252;8.780;2023-04-06T09:26:06;100702.25;;;20.94;34.03
77321;BME280;66382;52.252;8.780;2023-04-06T09:28:41;100700.03;;;21.13;36.55
77321;BME280;66382;52.252;8.780;2023-04-06T09:31:07;100697.97;;;21.42;31.83
77321;BME280;66382;52.252;8.780;2023-04-06T09:33:33;100693.50;;;21.36;31.74
77321;BME280;66382;52.252;8.780;2023-04-06T09:35:59;100707.03;;;21.47;34.69
77321;BME280;66382;52.252;8.780;2023-04-06T09:38:26;100694.97;;;21.43;31.88
77321;BME280;66382;52.252;8.780;2023-04-06T09:40:51;100694.94;;;21.21;33.39
77321;BME280;66382;52.252;8.780;2023-04-06T09:43:24;100692.03;;;21.06;37.21
77321;BME280;66382;52.252;8.780;2023-04-06T09:45:49;100696.44;;;20.85;29.43
77321;BME280;66382;52.252;8.780;2023-04-06T09:48:15;100688.50;;;20.83;35.76
77321;BME280;66382;52.252;8.780;2023-04-06T09:50:42;100683.56;;;21.02;34.68
77321;BME280;66382;52.252;8.780;2023-04-06T09:53:08;100688.38;;;21.17;32.52
77321;BME280;66382;52.252;8.780;2023-04-06T09:55:40;100683.84;;;21.28;36.33
77321;BME280;66382;52.252;8.780;2023-04-06T09:58:09;100682.41;;;21.20;32.88
77321;BME280;66382;52.252;8.780;2023-04-06T10:00:43;100691.41;;;20.99;34.33
77321;BME280;66382;52.252;8.780;2023-04-06T10:03:18;100688.38;;;20.95;33.34
77321;BME280;66382;52.252;8.780;2023-04-06T10:05:49;100685.47;;;21.02;34.02
77321;BME280;66382;52.252;8.780;2023-04-06T10:08:16;100681.53;;;20.93;33.13
77321;BME280;66382;52.252;8.780;2023-04-06T10:10:44;100686.47;;;20.96;32.23
77321;BME280;66382;52.252;8.780;2023-04-06T10:13:11;100680.19;;;20.73;29.43
77321;BME280;66382;52.252;8.780;2023-04-06T10:15:38;100676.06;;;20.54;32.88
77321;BME280;66382;52.252;8.780;2023-04-06T10:18:04;100677.97;;;20.70;32.51
77321;BME280;66382;52.252;8.780;2023-04-06T10:20:35;100679.88;;;20.92;33.74
77321;BME280;66382;52.252;8.780;2023-04-06T10:23:06;100680.56;;;20.82;32.91
77321;BME280;66382;52.252;8.780;2023-04-06T10:25:34;100679.66;;;20.76;30.80
77321;BME280;66382;52.252;8.780;2023-04-06T10:28:05;100672.72;;;20.86;33.66
77321;BME280;66382;52.252;8.780;2023-04-06T10:30:31;100688.66;;;20.77;30.52
77321;BME280;66382;52.252;8.780;2023-04-06T10:32:57;100685.00;;;20.32;30.93
77321;BME280;66382;52.252;8.780;2023-04-06T10:35:23;100678.28;;;19.72;30.21
77321;BME280;66382;52.252;8.780;2023-04-06T10:37:51;100679.25;;;19.09;30.40
77321;BME280;66382;52.252;8.780;2023-04-06T10:40:25;100669.94;;;18.81;32.24
77321;BME280;66382;52.252;8.780;2023-04-06T10:42:51;100667.38;;;18.63;30.37
77321;BME280;66382;52.252;8.780;2023-04-06T10:45:22;100669.13;;;18.22;31.64
77321;BME280;66382;52.252;8.780;2023-04-06T10:47:48;100663.31;;;17.83;30.15
77321;BME280;66382;52.252;8.780;2023-04-06T10:50:15;100674.88;;;17.60;29.75
77321;BME280;66382;52.252;8.780;2023-04-06T10:52:41;100668.34;;;17.19;27.90
77321;BME280;66382;52.252;8.780;2023-04-06T10:55:09;100666.50;;;16.83;30.55
77321;BME280;66382;52.252;8.780;2023-04-06T10:57:35;100656.81;;;16.68;30.15
77321;BME280;66382;52.252;8.780;2023-04-06T11:00:00;100654.44;;;16.60;30.60
77321;BME280;66382;52.252;8.780;2023-04-06T11:02:28;100650.13;;;16.52;32.02
77321;BME280;66382;52.252;8.780;2023-04-06T11:04:55;100660.00;;;16.47;31.37
77321;BME280;66382;52.252;8.780;2023-04-06T11:07:23;100659.66;;;16.37;30.59
77321;BME280;66382;52.252;8.780;2023-04-06T11:09:49;100649.00;;;16.17;32.02
77321;BME280;66382;52.252;8.780;2023-04-06T11:12:21;100646.53;;;16.15;33.04
77321;BME280;66382;52.252;8.780;2023-04-06T11:14:53;100644.59;;;15.97;33.27
77321;BME280;66382;52.252;8.780;2023-04-06T11:17:25;100649.06;;;15.85;32.38
77321;BME280;66382;52.252;8.780;2023-04-06T11:19:53;100648.47;;;15.83;31.10
77321;BME280;66382;52.252;8.780;2023-04-06T11:22:18;100642.13;;;15.71;31.43
77321;BME280;66382;52.252;8.780;2023-04-06T11:24:44;100638.16;;;15.73;32.55
77321;BME280;66382;52.252;8.780;2023-04-06T11:27:10;100643.34;;;15.68;32.43
77321;BME280;66382;52.252;8.780;2023-04-06T11:29:36;100635.25;;;15.68;33.41
77321;BME280;66382;52.252;8.780;2023-04-06T11:32:04;100637.75;;;15.69;32.98
77321;BME280;66382;52.252;8.780;2023-04-06T11:34:32;100642.31;;;15.62;33.24
77321;BME280;66382;52.252;8.780;2023-04-06T11:37:01;100631.75;;;15.61;32.92
77321;BME280;66382;52.252;8.780;2023-04-06T11:39:28;100630.44;;;15.70;33.48
77321;BME280;66382;52.252;8.780;2023-04-06T11:41:57;100622.34;;;15.70;33.54
77321;BME280;66382;52.252;8.780;2023-04-06T11:44:32;100620.06;;;15.67;33.41
77321;BME280;66382;52.252;8.780;2023-04-06T11:46:58;100619.94;;;15.55;31.68
77321;BME280;66382;52.252;8.780;2023-04-06T11:49:26;100616.53;;;15.35;33.91
77321;BME280;66382;52.252;8.780;2023-04-06T11:51:52;100615.31;;;15.31;33.46
77321;BME280;66382;52.252;8.780;2023-04-06T11:54:29;100621.38;;;15.26;33.90
77321;BME280;66382;52.252;8.780;2023-04-06T11:56:55;100628.63;;;15.25;33.55
77321;BME280;66382;52.252;8.780;2023-04-06T11:59:21;100621.19;;;15.21;34.03
77321;BME280;66382;52.252;8.780;2023-04-06T12:01:47;100612.66;;;15.24;33.60
77321;BME280;66382;52.252;8.780;2023-04-06T12:04:13;100609.97;;;15.24;32.56
77321;BME280;66382;52.252;8.780;2023-04-06T12:06:39;100603.91;;;15.29;32.91
77321;BME280;66382;52.252;8.780;2023-04-06T12:09:04;100611.94;;;15.35;32.56
77321;BME280;66382;52.252;8.780;2023-04-06T12:11:32;100608.66;;;15.33;33.15
77321;BME280;66382;52.252;8.780;2023-04-06T12:13:57;100606.81;;;15.27;32.84
77321;BME280;66382;52.252;8.780;2023-04-06T12:16:23;100602.28;;;15.21;33.64
77321;BME280;66382;52.252;8.780;2023-04-06T12:18:49;100601.06;;;15.17;33.28
77321;BME280;66382;52.252;8.780;2023-04-06T12:21:15;100600.66;;;15.13;32.99
77321;BME280;66382;52.252;8.780;2023-04-06T12:23:40;100598.81;;;15.14;34.39
77321;BME280;66382;52.252;8.780;2023-04-06T12:26:06;100601.53;;;15.07;32.83
77321;BME280;66382;52.252;8.780;2023-04-06T12:28:33;100598.06;;;14.93;34.17
77321;BME280;66382;52.252;8.780;2023-04-06T12:30:59;100597.28;;;14.86;33.79
77321;BME280;66382;52.252;8.780;2023-04-06T12:33:25;100600.56;;;14.88;33.78
77321;BME280;66382;52.252;8.780;2023-04-06T12:35:51;100594.97;;;14.83;32.83
77321;BME280;66382;52.252;8.780;2023-04-06T12:38:17;100579.69;;;14.70;33.39
77321;BME280;66382;52.252;8.780;2023-04-06T12:40:42;100597.88;;;14.88;32.73
77321;BME280;66382;52.252;8.780;2023-04-06T12:43:08;100591.44;;;14.89;33.65
77321;BME280;66382;52.252;8.780;2023-04-06T12:45:35;100594.72;;;14.98;33.50
77321;BME280;66382;52.252;8.780;2023-04-06T12:48:01;100589.28;;;15.04;34.19
77321;BME280;66382;52.252;8.780;2023-04-06T12:50:27;100585.97;;;15.02;32.75